createdAt,value
2023-02-08T00:01:20.290Z,4.53
2023-02-08T00:03:47.870Z,4.53
2023-02-08T00:06:15.190Z,4.41
2023-02-08T00:08:42.326Z,4.46
2023-02-08T00:11:12.410Z,4.52
2023-02-08T00:13:41.976Z,4.49
2023-02-08T00:16:09.966Z,4.32
2023-02-08T00:18:37.177Z,4.11
2023-02-08T00:21:08.463Z,4.15
2023-02-08T00:23:36.079Z,4.20
2023-02-08T00:26:03.297Z,4.18
2023-02-08T00:28:30.497Z,3.96
2023-02-08T00:30:58.127Z,4.17
2023-02-08T00:33:25.465Z,4.35
2023-02-08T00:35:58.191Z,4.49
2023-02-08T00:38:25.720Z,4.44
2023-02-08T00:40:52.919Z,4.85
2023-02-08T00:43:20.096Z,5.12
2023-02-08T00:45:47.513Z,5.30
2023-02-08T00:48:14.712Z,5.30
2023-02-08T00:50:42.045Z,5.10
2023-02-08T00:53:09.553Z,5.34
2023-02-08T00:55:36.715Z,5.31
2023-02-08T00:58:04.607Z,5.41
2023-02-08T01:00:32.069Z,5.46
2023-02-08T01:02:59.302Z,5.40
2023-02-08T01:05:26.466Z,5.75
2023-02-08T01:07:53.939Z,5.65
2023-02-08T01:10:21.181Z,5.64
2023-02-08T01:12:48.432Z,6.07
2023-02-08T01:15:15.843Z,6.18
2023-02-08T01:17:43.108Z,6.23
2023-02-08T01:20:10.693Z,6.20
2023-02-08T01:22:38.127Z,5.96
2023-02-08T01:25:05.351Z,6.20
2023-02-08T01:27:32.668Z,6.27
2023-02-08T01:30:00.113Z,6.23
2023-02-08T01:32:28.609Z,6.38
2023-02-08T01:34:55.734Z,6.37
2023-02-08T01:37:23.137Z,6.17
2023-02-08T01:39:50.304Z,6.25
2023-02-08T01:42:18.997Z,6.43
2023-02-08T01:45:01.719Z,6.38
2023-02-08T01:47:28.899Z,6.29
2023-02-08T01:49:56.322Z,6.31
2023-02-08T01:52:25.343Z,6.54
2023-02-08T01:55:12.708Z,6.52
2023-02-08T01:57:40.181Z,6.02
2023-02-08T02:00:08.775Z,6.13
2023-02-08T02:02:41.028Z,6.01
2023-02-08T02:05:08.664Z,5.91
2023-02-08T02:07:36.057Z,6.00
2023-02-08T02:10:06.166Z,6.19
2023-02-08T02:12:33.571Z,6.34
2023-02-08T02:15:01.637Z,6.68
2023-02-08T02:17:30.148Z,6.76
2023-02-08T02:20:20.390Z,6.79
2023-02-08T02:23:06.893Z,6.86
2023-02-08T02:26:06.600Z,6.81
2023-02-08T02:28:53.001Z,6.70
2023-02-08T02:31:22.385Z,6.70
2023-02-08T02:33:58.741Z,6.29
2023-02-08T02:36:33.173Z,6.25
2023-02-08T02:39:07.568Z,6.58
2023-02-08T02:42:02.183Z,6.33
2023-02-08T02:44:38.799Z,6.42
2023-02-08T02:47:09.350Z,6.61
2023-02-08T02:49:44.091Z,6.52
2023-02-08T02:52:11.881Z,6.70
2023-02-08T02:54:44.985Z,6.70
2023-02-08T02:57:12.806Z,6.75
2023-02-08T02:59:40.290Z,6.92
2023-02-08T03:02:07.462Z,6.96
2023-02-08T03:04:34.742Z,7.02
2023-02-08T03:07:11.250Z,7.01
2023-02-08T03:09:52.995Z,7.22
2023-02-08T03:12:26.352Z,7.08
2023-02-08T03:14:53.611Z,6.94
2023-02-08T03:17:39.820Z,7.09
2023-02-08T03:20:26.135Z,7.08
2023-02-08T03:22:59.302Z,7.15
2023-02-08T03:25:33.529Z,7.10
2023-02-08T03:28:00.946Z,7.29
2023-02-08T03:30:30.797Z,7.47
2023-02-08T03:33:03.258Z,7.45
2023-02-08T03:35:38.461Z,7.62
2023-02-08T03:38:09.787Z,7.64
2023-02-08T03:40:38.425Z,7.53
2023-02-08T03:43:10.456Z,7.20
2023-02-08T03:45:39.845Z,7.64
2023-02-08T03:48:08.894Z,7.72
2023-02-08T03:50:36.571Z,7.53
2023-02-08T03:53:04.123Z,7.74
2023-02-08T03:55:32.048Z,7.75
2023-02-08T03:57:59.414Z,7.71
2023-02-08T04:00:26.806Z,7.72
2023-02-08T04:02:56.191Z,7.70
2023-02-08T04:05:24.092Z,7.42
2023-02-08T04:07:51.592Z,7.43
2023-02-08T04:10:19.186Z,7.56
2023-02-08T04:12:46.620Z,7.36
2023-02-08T04:15:13.772Z,7.63
2023-02-08T04:17:41.403Z,7.64
2023-02-08T04:20:08.665Z,7.77
2023-02-08T04:22:35.965Z,7.79
2023-02-08T04:25:03.618Z,7.67
2023-02-08T04:27:30.773Z,7.34
2023-02-08T04:29:57.888Z,7.32
2023-02-08T04:32:25.320Z,6.80
2023-02-08T04:34:52.457Z,7.44
2023-02-08T04:37:19.605Z,7.66
2023-02-08T04:39:47.178Z,7.75
2023-02-08T04:42:14.308Z,7.57
2023-02-08T04:44:41.484Z,7.76
2023-02-08T04:47:08.920Z,7.61
2023-02-08T04:49:36.065Z,7.30
2023-02-08T04:52:03.277Z,6.85
2023-02-08T04:54:30.720Z,7.61
2023-02-08T04:56:57.839Z,7.57
2023-02-08T04:59:25.042Z,7.61
2023-02-08T05:01:52.563Z,7.66
2023-02-08T05:04:19.704Z,7.82
2023-02-08T05:06:48.407Z,7.84
2023-02-08T05:09:15.980Z,7.49
2023-02-08T05:11:43.153Z,7.65
2023-02-08T05:14:10.345Z,7.80
2023-02-08T05:16:37.801Z,7.90
2023-02-08T05:19:04.952Z,7.51
2023-02-08T05:21:32.175Z,7.65
2023-02-08T05:23:59.594Z,7.35
2023-02-08T05:26:26.827Z,7.50
2023-02-08T05:28:54.025Z,7.69
2023-02-08T05:31:22.843Z,7.77
2023-02-08T05:33:50.787Z,7.84
2023-02-08T05:36:18.164Z,7.91
2023-02-08T05:38:45.833Z,7.43
2023-02-08T05:41:12.958Z,7.46
2023-02-08T05:43:40.107Z,7.20
2023-02-08T05:46:07.841Z,7.11
2023-02-08T05:48:35.038Z,7.08
2023-02-08T05:51:02.224Z,7.01
2023-02-08T05:53:29.791Z,7.48
2023-02-08T05:55:59.938Z,7.45
2023-02-08T05:58:27.297Z,7.28
2023-02-08T06:00:54.704Z,7.76
2023-02-08T06:03:22.216Z,7.97
2023-02-08T06:05:49.637Z,7.84
2023-02-08T06:08:16.756Z,7.66
2023-02-08T06:10:45.909Z,7.72
2023-02-08T06:13:13.101Z,7.48
2023-02-08T06:15:40.432Z,7.88
2023-02-08T06:18:09.209Z,7.94
2023-02-08T06:20:36.529Z,7.65
2023-02-08T06:23:03.788Z,7.32
2023-02-08T06:25:31.284Z,7.76
2023-02-08T06:27:58.558Z,7.88
2023-02-08T06:30:25.769Z,7.87
2023-02-08T06:32:53.175Z,7.93
2023-02-08T06:35:20.360Z,7.76
2023-02-08T06:37:47.491Z,6.35
2023-02-08T06:40:14.895Z,7.25
2023-02-08T06:42:43.094Z,7.60
2023-02-08T06:45:12.625Z,7.80
2023-02-08T06:47:40.937Z,7.83
2023-02-08T06:50:08.387Z,7.87
2023-02-08T06:52:35.552Z,8.02
2023-02-08T06:55:02.984Z,8.12
2023-02-08T06:57:30.195Z,8.16
2023-02-08T06:59:57.511Z,8.30
2023-02-08T07:02:25.035Z,8.39
2023-02-08T07:04:52.278Z,8.38
2023-02-08T07:07:19.393Z,8.28
2023-02-08T07:09:46.934Z,8.46
2023-02-08T07:12:14.161Z,8.82
2023-02-08T07:14:42.585Z,8.34
2023-02-08T07:17:10.633Z,9.13
2023-02-08T07:19:37.781Z,9.47
2023-02-08T07:22:08.207Z,9.18
2023-02-08T07:24:40.740Z,9.76
2023-02-08T07:27:08.351Z,9.62
2023-02-08T07:29:36.051Z,9.92
2023-02-08T07:32:03.917Z,9.88
2023-02-08T07:34:31.785Z,10.03
2023-02-08T07:36:59.301Z,10.08
2023-02-08T07:39:26.506Z,10.35
2023-02-08T07:41:53.690Z,10.60
2023-02-08T07:44:22.650Z,10.44
2023-02-08T07:46:49.932Z,9.55
2023-02-08T07:49:17.088Z,9.99
2023-02-08T07:51:44.526Z,9.80
2023-02-08T07:54:11.695Z,10.42
2023-02-08T07:56:38.865Z,9.91
2023-02-08T07:59:06.677Z,9.17
2023-02-08T08:01:33.899Z,8.31
2023-02-08T08:04:01.375Z,8.29
2023-02-08T08:06:28.551Z,8.06
2023-02-08T08:08:55.723Z,7.70
2023-02-08T08:11:23.211Z,7.51
2023-02-08T08:13:50.522Z,6.42
2023-02-08T08:16:18.138Z,6.45
2023-02-08T08:18:45.661Z,5.74
2023-02-08T08:21:12.845Z,5.27
2023-02-08T08:23:40.833Z,5.06
2023-02-08T08:26:09.290Z,6.09
2023-02-08T08:28:36.808Z,6.02
2023-02-08T08:31:04.119Z,7.41
2023-02-08T08:33:31.643Z,7.31
2023-02-08T08:35:58.833Z,7.27
2023-02-08T08:38:26.045Z,6.28
2023-02-08T08:40:53.459Z,5.61
2023-02-08T08:43:20.651Z,5.80
2023-02-08T08:45:49.200Z,5.24
2023-02-08T08:48:17.111Z,5.64
2023-02-08T08:50:44.304Z,4.72
2023-02-08T08:53:11.485Z,5.02
2023-02-08T08:55:38.874Z,5.20
2023-02-08T08:58:06.125Z,5.31
2023-02-08T09:00:33.261Z,5.24
2023-02-08T09:03:00.738Z,5.33
2023-02-08T09:05:27.957Z,5.12
2023-02-08T09:07:55.165Z,5.80
2023-02-08T09:10:22.642Z,6.11
2023-02-08T09:12:49.880Z,5.47
2023-02-08T09:15:17.239Z,5.67
2023-02-08T09:17:44.739Z,5.52
2023-02-08T09:20:11.883Z,5.83
2023-02-08T09:22:39.096Z,6.07
2023-02-08T09:25:07.710Z,6.91
2023-02-08T09:27:35.101Z,6.86
2023-02-08T09:30:02.362Z,6.94
2023-02-08T09:32:34.190Z,7.32
2023-02-08T09:35:02.436Z,7.60
2023-02-08T09:37:30.186Z,6.87
2023-02-08T09:40:00.046Z,5.95
2023-02-08T09:42:27.192Z,6.89
2023-02-08T09:45:07.158Z,7.66
2023-02-08T09:47:44.814Z,8.31
2023-02-08T09:50:28.203Z,8.20
2023-02-08T09:52:59.638Z,7.43
2023-02-08T09:55:32.447Z,8.45
2023-02-08T09:57:59.746Z,8.83
2023-02-08T10:00:39.299Z,8.04
2023-02-08T10:03:06.793Z,8.06
2023-02-08T10:05:35.713Z,9.08
2023-02-08T10:08:02.977Z,9.47
2023-02-08T10:10:37.901Z,9.49
2023-02-08T10:13:13.875Z,8.47
2023-02-08T10:15:43.001Z,9.53
2023-02-08T10:18:19.346Z,8.36
2023-02-08T10:21:05.453Z,8.70
2023-02-08T10:23:32.665Z,8.07
2023-02-08T10:26:18.639Z,8.07
2023-02-08T10:28:50.442Z,8.86
2023-02-08T10:31:22.539Z,8.58
2023-02-08T10:33:52.204Z,9.36
2023-02-08T10:36:21.029Z,9.61
2023-02-08T10:38:57.144Z,9.21
2023-02-08T10:41:37.816Z,9.08
2023-02-08T10:44:14.528Z,9.28
2023-02-08T10:46:47.951Z,9.75
2023-02-08T10:49:21.447Z,9.72
2023-02-08T10:51:50.864Z,9.30
2023-02-08T10:54:19.385Z,8.33
2023-02-08T10:56:52.253Z,9.63
2023-02-08T10:59:21.219Z,8.83
2023-02-08T11:01:58.296Z,10.11
2023-02-08T11:04:31.765Z,9.92
2023-02-08T11:06:59.110Z,9.95
2023-02-08T11:09:26.756Z,10.42
2023-02-08T11:11:56.090Z,9.28
2023-02-08T11:14:27.141Z,8.97
2023-02-08T11:17:05.625Z,9.06
2023-02-08T11:19:39.948Z,8.50
2023-02-08T11:22:08.875Z,8.67
2023-02-08T11:24:43.923Z,8.22
2023-02-08T11:27:33.391Z,8.03
2023-02-08T11:30:14.027Z,7.66
2023-02-08T11:32:44.766Z,6.28
2023-02-08T11:35:29.408Z,8.00
2023-02-08T11:38:05.003Z,7.83
2023-02-08T11:40:35.065Z,8.39
2023-02-08T11:43:03.801Z,8.40
2023-02-08T11:45:40.978Z,8.68
2023-02-08T11:48:14.621Z,8.10
2023-02-08T11:50:41.816Z,8.25
2023-02-08T11:53:21.276Z,7.68
2023-02-08T11:55:55.763Z,8.24
2023-02-08T11:58:24.723Z,7.78
2023-02-08T12:01:18.404Z,7.47
2023-02-08T12:03:48.097Z,7.30
2023-02-08T12:06:24.245Z,6.40
2023-02-08T12:09:14.546Z,6.60
2023-02-08T12:11:43.217Z,6.19
2023-02-08T12:14:22.829Z,7.07
2023-02-08T12:16:52.959Z,6.23
2023-02-08T12:19:40.185Z,6.25
2023-02-08T12:22:11.406Z,7.42
2023-02-08T12:24:57.876Z,6.72
2023-02-08T12:27:37.517Z,6.92
2023-02-08T12:30:11.710Z,6.65
2023-02-08T12:32:45.869Z,6.83
2023-02-08T12:35:17.437Z,5.81
2023-02-08T12:38:10.406Z,6.66
2023-02-08T12:40:50.787Z,6.76
2023-02-08T12:43:20.970Z,6.50
2023-02-08T12:45:57.289Z,6.02
2023-02-08T12:48:31.108Z,6.44
2023-02-08T12:51:04.775Z,6.51
2023-02-08T12:53:33.826Z,6.50
2023-02-08T12:56:02.671Z,6.76
2023-02-08T12:58:35.218Z,7.12
2023-02-08T13:01:09.593Z,7.54
2023-02-08T13:03:39.812Z,6.81
2023-02-08T13:06:07.907Z,6.34
2023-02-08T13:08:55.814Z,6.54
2023-02-08T13:11:23.188Z,6.17
2023-02-08T13:14:10.833Z,6.29
2023-02-08T13:16:40.331Z,5.45
2023-02-08T13:19:07.451Z,6.65
2023-02-08T13:21:38.123Z,6.46
2023-02-08T13:24:06.754Z,6.32
2023-02-08T13:26:34.687Z,6.23
2023-02-08T13:29:02.532Z,6.07
2023-02-08T13:31:31.867Z,5.60
2023-02-08T13:34:08.318Z,6.13
2023-02-08T13:36:36.733Z,6.18
2023-02-08T13:39:05.851Z,5.57
2023-02-08T13:41:33.475Z,5.16
2023-02-08T13:44:01.599Z,5.02
2023-02-08T13:46:29.444Z,5.05
2023-02-08T13:48:57.467Z,5.46
2023-02-08T13:51:30.741Z,4.94
2023-02-08T13:53:57.974Z,6.44
2023-02-08T13:56:37.531Z,6.45
2023-02-08T13:59:05.944Z,7.00
2023-02-08T14:01:34.674Z,7.50
2023-02-08T14:04:08.166Z,7.35
2023-02-08T14:06:36.351Z,7.06
2023-02-08T14:09:12.475Z,6.54
2023-02-08T14:11:45.592Z,7.09
2023-02-08T14:14:15.041Z,6.61
2023-02-08T14:16:42.621Z,6.64
2023-02-08T14:19:15.988Z,6.40
2023-02-08T14:21:47.095Z,6.61
2023-02-08T14:24:34.495Z,6.70
2023-02-08T14:27:17.152Z,6.09
2023-02-08T14:29:44.405Z,6.39
2023-02-08T14:32:22.072Z,6.50
2023-02-08T14:34:49.210Z,6.92
2023-02-08T14:37:20.494Z,6.25
2023-02-08T14:39:50.561Z,6.39
2023-02-08T14:42:37.946Z,6.47
2023-02-08T14:45:05.613Z,6.81
2023-02-08T14:47:35.337Z,6.27
2023-02-08T14:50:14.175Z,6.33
2023-02-08T14:52:43.212Z,6.18
2023-02-08T14:55:15.342Z,5.99
2023-02-08T14:57:42.804Z,5.66
2023-02-08T15:00:17.605Z,5.93
2023-02-08T15:02:45.575Z,6.36
2023-02-08T15:05:22.977Z,6.49
2023-02-08T15:08:08.699Z,6.86
2023-02-08T15:10:36.318Z,6.81
2023-02-08T15:13:06.495Z,6.71
2023-02-08T15:15:39.955Z,6.90
2023-02-08T15:18:07.707Z,7.15
2023-02-08T15:20:35.101Z,6.44
2023-02-08T15:23:06.311Z,5.92
2023-02-08T15:25:34.749Z,5.91
2023-02-08T15:28:20.788Z,5.68
2023-02-08T15:31:09.256Z,5.74
2023-02-08T15:33:39.883Z,5.91
2023-02-08T15:36:24.667Z,6.43
2023-02-08T15:38:51.971Z,6.16
2023-02-08T15:41:29.644Z,6.51
2023-02-08T15:44:12.927Z,6.53
2023-02-08T15:46:41.805Z,6.34
2023-02-08T15:49:11.879Z,6.67
2023-02-08T15:51:39.001Z,6.70
2023-02-08T15:54:08.535Z,7.60
2023-02-08T15:56:39.537Z,7.65
2023-02-08T15:59:08.919Z,7.65
2023-02-08T16:01:36.236Z,7.99
2023-02-08T16:04:12.252Z,7.99
2023-02-08T16:06:40.705Z,7.81
2023-02-08T16:09:13.471Z,8.06
2023-02-08T16:11:40.691Z,8.27
2023-02-08T16:14:08.374Z,8.16
2023-02-08T16:16:35.554Z,8.55
2023-02-08T16:19:22.952Z,8.32
2023-02-08T16:21:50.864Z,8.44
2023-02-08T16:24:19.965Z,8.85
2023-02-08T16:26:58.045Z,8.79
2023-02-08T16:29:25.558Z,8.79
2023-02-08T16:31:57.552Z,8.22
2023-02-08T16:34:24.854Z,8.09
2023-02-08T16:36:52.350Z,7.52
2023-02-08T16:39:39.445Z,7.79
2023-02-08T16:42:15.915Z,8.37
2023-02-08T16:44:57.147Z,8.01
2023-02-08T16:47:25.654Z,8.69
2023-02-08T16:49:52.775Z,8.82
2023-02-08T16:52:20.078Z,8.69
2023-02-08T16:54:47.631Z,8.69
2023-02-08T16:57:14.899Z,9.18
2023-02-08T16:59:42.292Z,9.40
2023-02-08T17:02:11.252Z,9.41
2023-02-08T17:04:38.755Z,9.41
2023-02-08T17:07:06.054Z,9.47
2023-02-08T17:09:33.783Z,9.35
2023-02-08T17:12:01.299Z,9.27
2023-02-08T17:14:28.484Z,9.39
2023-02-08T17:16:55.951Z,9.43
2023-02-08T17:19:23.160Z,9.09
2023-02-08T17:21:50.339Z,9.24
2023-02-08T17:24:17.818Z,9.23
2023-02-08T17:26:45.234Z,9.14
2023-02-08T17:29:12.866Z,9.27
2023-02-08T17:31:41.177Z,9.07
2023-02-08T17:34:08.559Z,9.09
2023-02-08T17:36:36.198Z,9.17
2023-02-08T17:39:05.228Z,9.19
2023-02-08T17:41:33.570Z,9.09
2023-02-08T17:44:00.845Z,9.08
2023-02-08T17:46:30.598Z,9.23
2023-02-08T17:49:01.480Z,9.15
2023-02-08T17:51:29.252Z,9.23
2023-02-08T17:53:57.108Z,9.26
2023-02-08T17:56:25.712Z,8.83
2023-02-08T17:58:54.470Z,9.09
2023-02-08T18:01:22.813Z,9.08
2023-02-08T18:03:51.692Z,9.07
2023-02-08T18:06:19.175Z,9.06
2023-02-08T18:08:46.553Z,8.98
2023-02-08T18:11:19.565Z,8.98
2023-02-08T18:13:47.605Z,8.95
2023-02-08T18:16:16.615Z,8.92
2023-02-08T18:18:44.225Z,8.84
2023-02-08T18:21:12.240Z,8.83
2023-02-08T18:23:40.113Z,8.93
2023-02-08T18:26:08.332Z,8.79
2023-02-08T18:28:37.191Z,8.73
2023-02-08T18:31:10.185Z,8.66
2023-02-08T18:33:37.696Z,8.75
2023-02-08T18:36:06.362Z,8.67
2023-02-08T18:38:33.697Z,8.57
2023-02-08T18:41:01.758Z,8.57
2023-02-08T18:43:29.326Z,8.56
2023-02-08T18:46:00.419Z,8.68
2023-02-08T18:48:27.760Z,8.72
2023-02-08T18:50:56.640Z,8.69
2023-02-08T18:53:24.936Z,8.57
2023-02-08T18:55:52.966Z,8.52
2023-02-08T18:58:20.914Z,8.50
2023-02-08T19:00:48.507Z,8.59
2023-02-08T19:03:16.362Z,8.62
2023-02-08T19:05:44.450Z,8.61
2023-02-08T19:08:12.476Z,8.46
2023-02-08T19:10:40.115Z,8.54
2023-02-08T19:13:07.941Z,8.52
2023-02-08T19:15:36.566Z,8.54
2023-02-08T19:18:04.325Z,8.38
2023-02-08T19:20:34.344Z,8.38
2023-02-08T19:23:03.228Z,8.37
2023-02-08T19:25:30.656Z,8.35
2023-02-08T19:27:58.742Z,8.27
2023-02-08T19:30:26.036Z,8.31
2023-02-08T19:32:53.377Z,8.25
2023-02-08T19:35:21.938Z,8.06
2023-02-08T19:37:51.363Z,8.04
2023-02-08T19:40:19.013Z,7.98
2023-02-08T19:42:46.772Z,7.97
2023-02-08T19:45:14.301Z,7.89
2023-02-08T19:47:51.036Z,7.82
2023-02-08T19:50:18.977Z,7.77
2023-02-08T19:52:46.360Z,7.55
2023-02-08T19:55:13.725Z,7.76
2023-02-08T19:57:41.299Z,7.73
2023-02-08T20:00:22.612Z,7.76
2023-02-08T20:02:51.362Z,7.67
2023-02-08T20:05:18.696Z,6.04
2023-02-08T20:07:45.907Z,7.30
2023-02-08T20:10:13.529Z,7.14
2023-02-08T20:12:40.899Z,7.46
2023-02-08T20:15:08.434Z,7.57
2023-02-08T20:17:36.213Z,7.61
2023-02-08T20:20:03.700Z,7.60
2023-02-08T20:22:31.111Z,7.44
2023-02-08T20:24:58.697Z,7.57
2023-02-08T20:27:30.816Z,7.43
2023-02-08T20:29:58.373Z,7.33
2023-02-08T20:32:25.988Z,7.12
2023-02-08T20:34:59.482Z,7.25
2023-02-08T20:37:27.691Z,7.16
2023-02-08T20:39:55.017Z,7.19
2023-02-08T20:42:22.611Z,6.99
2023-02-08T20:44:50.478Z,6.95
2023-02-08T20:47:21.846Z,6.99
2023-02-08T20:49:49.380Z,6.72
2023-02-08T20:52:17.807Z,6.78
2023-02-08T20:54:46.005Z,6.81
2023-02-08T20:57:18.221Z,6.61
2023-02-08T20:59:46.026Z,6.67
2023-02-08T21:02:17.343Z,6.65
2023-02-08T21:04:44.619Z,6.62
2023-02-08T21:07:12.345Z,6.29
2023-02-08T21:09:39.632Z,6.12
2023-02-08T21:12:06.863Z,6.16
2023-02-08T21:14:34.477Z,6.15
2023-02-08T21:17:01.843Z,6.06
2023-02-08T21:19:29.656Z,5.83
2023-02-08T21:21:58.651Z,5.84
2023-02-08T21:24:26.160Z,5.91
2023-02-08T21:26:53.844Z,5.79
2023-02-08T21:29:21.442Z,5.63
2023-02-08T21:31:54.109Z,5.44
2023-02-08T21:34:22.052Z,5.44
2023-02-08T21:36:49.318Z,5.66
2023-02-08T21:39:16.631Z,5.53
2023-02-08T21:41:44.281Z,5.55
2023-02-08T21:44:11.607Z,5.44
2023-02-08T21:46:38.975Z,5.41
2023-02-08T21:49:25.341Z,5.38
2023-02-08T21:52:11.176Z,5.38
2023-02-08T21:54:41.593Z,5.15
2023-02-08T21:57:10.095Z,5.19
2023-02-08T21:59:37.802Z,5.14
2023-02-08T22:02:05.954Z,5.23
2023-02-08T22:04:34.102Z,5.05
2023-02-08T22:07:01.842Z,5.10
2023-02-08T22:09:29.250Z,5.25
2023-02-08T22:11:59.579Z,5.22
2023-02-08T22:14:26.818Z,4.99
2023-02-08T22:16:54.018Z,4.89
2023-02-08T22:19:21.478Z,5.02
2023-02-08T22:21:48.711Z,4.99
2023-02-08T22:24:15.867Z,4.79
2023-02-08T22:26:43.931Z,4.71
2023-02-08T22:29:11.288Z,4.75
2023-02-08T22:31:38.573Z,4.78
2023-02-08T22:34:06.087Z,4.87
2023-02-08T22:36:33.342Z,4.85
2023-02-08T22:39:00.539Z,4.87
2023-02-08T22:41:28.012Z,4.88
2023-02-08T22:43:55.297Z,5.08
2023-02-08T22:46:22.505Z,5.04
2023-02-08T22:48:50.108Z,5.00
2023-02-08T22:51:18.024Z,5.06
2023-02-08T22:53:45.190Z,5.05
2023-02-08T22:56:15.998Z,5.04
2023-02-08T22:58:43.248Z,4.98
2023-02-08T23:01:11.446Z,4.85
2023-02-08T23:03:39.559Z,4.81
2023-02-08T23:06:07.593Z,4.97
2023-02-08T23:08:34.923Z,5.09
2023-02-08T23:11:03.222Z,5.09
2023-02-08T23:13:30.556Z,4.96
2023-02-08T23:15:57.932Z,5.04
2023-02-08T23:18:25.788Z,5.16
2023-02-08T23:20:54.501Z,5.12
2023-02-08T23:23:21.861Z,5.00
2023-02-08T23:25:49.293Z,4.85
2023-02-08T23:28:16.542Z,4.75
2023-02-08T23:30:44.070Z,4.95
2023-02-08T23:33:11.756Z,4.99
2023-02-08T23:35:39.643Z,5.11
2023-02-08T23:38:06.810Z,5.13
2023-02-08T23:40:34.273Z,5.10
2023-02-08T23:43:01.581Z,5.14
2023-02-08T23:45:28.755Z,5.05
2023-02-08T23:47:56.201Z,4.98
2023-02-08T23:50:23.413Z,4.67
2023-02-08T23:52:50.573Z,4.72
2023-02-08T23:55:18.042Z,4.87
2023-02-08T23:57:45.241Z,4.84
